Lifter — V2DD4 — position and weather

sailwx.info

Track history (hours):
 
Tides and Currents Weather Stations Pressure Air Temp Water Temp Dewpoint Dewpoint Depression Visibility Wind Speed Wind Dir Waves Ship Positions

Lifter

Last reported at 2016-Feb-09 22:29 UTC. Time now 2016-Feb-09 22:40 UTC.
Position N 51°17' E 004°21'.

Length 118 m; draft 4.9 m.

Type: Cargo ship. MMSI: 305175000.

Date/timePositionNaut miles runAvg speedWind from/ knotsBaromVisibWave heightAir tempDewpointWater temp
2016-Feb-09 22:29N 51°17' E 004°21'0 0.0
2016-Feb-09 21:32N 51°17' E 004°21'0 0.0
2016-Feb-09 20:32N 51°17' E 004°21'0 0.0
2016-Feb-09 19:32N 51°17' E 004°21'0 0.0
2016-Feb-09 18:32N 51°17' E 004°21'0 0.0
2016-Feb-09 17:32N 51°17' E 004°21'0 0.0
2016-Feb-09 16:32N 51°17' E 004°21'0 0.0
2016-Feb-09 15:32N 51°17' E 004°21'0 0.0
2016-Feb-09 14:32N 51°17' E 004°21'0 0.0
2016-Feb-09 13:29N 51°17' E 004°21'0 0.0
2016-Feb-09 12:32N 51°17' E 004°21'0 0.0
2016-Feb-09 11:29N 51°17' E 004°21'0 0.0
2016-Feb-09 10:32N 51°17' E 004°21'0 0.0
2016-Feb-09 09:32N 51°17' E 004°21'0 0.0
2016-Feb-09 08:32N 51°17' E 004°21'0 0.0
2016-Feb-09 07:32N 51°17' E 004°21'0 0.0
2016-Feb-09 06:32N 51°17' E 004°21'0 0.0
2016-Feb-09 05:32N 51°17' E 004°21'0 0.0
2016-Feb-09 04:32N 51°17' E 004°21'0 0.0
2016-Feb-09 03:32N 51°17' E 004°21'0 0.0
2016-Feb-09 02:32N 51°17' E 004°21'0 0.0
2016-Feb-09 01:29N 51°17' E 004°21'0 0.0
2016-Feb-09 00:32N 51°17' E 004°21'0 0.0
2016-Feb-08 23:29N 51°17' E 004°21'0 0.0
2016-Feb-08 22:32N 51°17' E 004°21'0 0.0
2016-Feb-08 21:32N 51°17' E 004°21'0 0.0
2016-Feb-08 20:32N 51°17' E 004°21'0 0.0
2016-Feb-08 19:32N 51°17' E 004°21'0 0.0
2016-Feb-08 18:32N 51°17' E 004°21'0 0.0
2016-Feb-08 17:32N 51°17' E 004°21'0 0.0
2016-Feb-08 16:32N 51°17' E 004°21'0 0.0
2016-Feb-08 15:32N 51°17' E 004°21'0 0.0
2016-Feb-08 14:32N 51°17' E 004°21'0 0.0
2016-Feb-08 13:32N 51°17' E 004°21'0 0.0
2016-Feb-08 12:32N 51°17' E 004°21'0 0.0
2016-Feb-08 11:32N 51°17' E 004°21'0 0.0
2016-Feb-08 10:32N 51°17' E 004°21'0 0.0
2016-Feb-08 09:32N 51°17' E 004°21'0 0.0
2016-Feb-08 08:29N 51°17' E 004°21'0 0.0
2016-Feb-08 07:32N 51°17' E 004°21'0 0.0
2016-Feb-08 06:32N 51°17' E 004°21'0 0.0
2016-Feb-08 05:32N 51°17' E 004°21'0 0.0
2016-Feb-08 04:32N 51°17' E 004°21'0 0.0
2016-Feb-08 03:32N 51°17' E 004°21'0 0.0
2016-Feb-08 02:32N 51°17' E 004°21'0 0.0
2016-Feb-08 01:32N 51°17' E 004°21'0 0.0
2016-Feb-08 00:32N 51°17' E 004°21'0 0.0
2016-Feb-07 23:32N 51°17' E 004°21'0 0.0
2016-Feb-07 22:32N 51°17' E 004°21'0 0.0
2016-Feb-07 21:32N 51°17' E 004°21'0 0.0
2016-Feb-07 20:32N 51°17' E 004°21'0 0.0
2016-Feb-07 19:32N 51°17' E 004°21'0 0.0
2016-Feb-07 18:32N 51°17' E 004°21'0 0.0
2016-Feb-07 17:32N 51°17' E 004°21'0 0.0
2016-Feb-07 16:32N 51°17' E 004°21'0 0.0
2016-Feb-07 15:29N 51°17' E 004°21'1 0.6
2016-Feb-07 14:33N 51°17' E 004°20'4 4.0
2016-Feb-07 13:33N 51°21' E 004°17'2 2.3
2016-Feb-07 12:33N 51°22' E 004°14'9 9.3
2016-Feb-07 11:33N 51°26' E 004°01'1010.4
2016-Feb-07 10:33N 51°22' E 003°45'1010.3
2016-Feb-07 09:33N 51°27' E 003°31'10 9.7
2016-Feb-07 08:33N 51°35' E 003°23'9 8.6
2016-Feb-07 07:33N 51°42' E 003°15'7 7.1
2016-Feb-07 06:33N 51°50' E 003°15'99 7.4
2016-Feb-06 17:07N 53°17' E 004°30'41 9.0
2016-Feb-06 12:33N 53°57' E 004°52'1010.3
2016-Feb-06 11:33N 54°06' E 004°59'1010.0
2016-Feb-06 10:33N 54°12' E 005°12'10 9.9
2016-Feb-06 09:33N 54°18' E 005°26'58 9.6
2016-Feb-06 03:33N 54°49' E 006°51'1111.3
2016-Feb-06 02:33N 54°55' E 007°06'1211.6
2016-Feb-06 01:33N 55°02' E 007°22'1211.9
2016-Feb-06 00:33N 55°10' E 007°38'1212.1
2016-Feb-05 23:33N 55°18' E 007°54'1312.6
2016-Feb-05 22:33N 55°25' E 008°12'8 8.3
2016-Feb-05 21:33N 55°28' E 008°26'0 0.1
2016-Feb-05 20:32N 55°28' E 008°26'0 0.0
2016-Feb-05 19:29N 55°28' E 008°26'0 0.0
2016-Feb-05 18:29N 55°28' E 008°26'0 0.0
2016-Feb-05 17:20N 55°28' E 008°26'0 0.0
2016-Feb-05 16:14N 55°28' E 008°26'0 0.0
2016-Feb-05 15:32N 55°28' E 008°26'0 0.0
2016-Feb-05 14:32N 55°28' E 008°26'0 0.0
2016-Feb-05 13:32N 55°28' E 008°26'0 0.0
2016-Feb-05 12:32N 55°28' E 008°26'0 0.0
2016-Feb-05 11:29N 55°28' E 008°26'0 0.0
2016-Feb-05 10:33N 55°28' E 008°26'8 7.6
2016-Feb-05 09:33N 55°25' E 008°13'1110.6
2016-Feb-05 08:33N 55°19' E 007°58'1110.6
2016-Feb-05 07:33N 55°13' E 007°43'1110.5
2016-Feb-05 06:33N 55°06' E 007°29'1110.6
2016-Feb-05 05:33N 55°00' E 007°14'1110.6
2016-Feb-05 04:33N 54°54' E 006°58'4912.1
2016-Feb-05 00:31N 54°26' E 005°49'1212.5
2016-Feb-04 23:33N 54°19' E 005°32'1312.9
2016-Feb-04 22:34N 54°12' E 005°14'1312.6
2016-Feb-04 21:33N 54°01' E 005°05'1312.8
2016-Feb-04 20:33N 53°49' E 004°57'1312.6
2016-Feb-04 19:30N 53°36' E 004°50'2412.4
2016-Feb-04 17:33N 53°14' E 004°34'1212.5
2016-Feb-04 16:34N 53°03' E 004°25'1212.3
2016-Feb-04 15:33N 52°52' E 004°15'1212.4
2016-Feb-04 14:33N 52°42' E 004°04'1212.5
2016-Feb-04 13:33N 52°32' E 003°51'6812.7
2016-Feb-04 08:12N 51°43' E 002°34'812.6
2016-Feb-04 07:33N 51°37' E 002°25'1312.7
2016-Feb-04 06:31N 51°27' E 002°13'1212.6
2016-Feb-04 05:34N 51°16' E 002°05'1212.3
2016-Feb-04 04:33N 51°09' E 001°49'1212.0
2016-Feb-04 03:33N 50°60' E 001°36'1111.3
2016-Feb-04 02:33N 50°50' E 001°27'  
2016-Jan-31 13:09N 41°59' W 009°47'712.3
2016-Jan-31 12:33N 41°52' W 009°48'1212.4
2016-Jan-31 11:32N 41°40' W 009°48'1211.5
2016-Jan-31 10:32N 41°28' W 009°48'1313.7
2016-Jan-31 09:33N 41°15' W 009°48'1211.9
2016-Jan-31 08:30N 41°02' W 009°48'1111.9
2016-Jan-31 07:33N 40°51' W 009°48'1212.5
2016-Jan-31 06:33N 40°38' W 009°48'1312.6
2016-Jan-31 05:33N 40°26' W 009°49'1211.8
2016-Jan-31 04:31N 40°13' W 009°49'1313.7
2016-Jan-31 03:33N 40°00' W 009°49'1312.6
2016-Jan-31 02:33N 39°48' W 009°50'1312.9
2016-Jan-31 01:33N 39°35' W 009°50'1111.5
2016-Jan-31 00:33N 39°23' W 009°51'1312.6
2016-Jan-30 23:33N 39°11' W 009°51'1212.5
2016-Jan-30 22:34N 38°58' W 009°50'  
Track history (hours):
 
Tides and Currents Weather Stations Pressure Air Temp Water Temp Dewpoint Dewpoint Depression Visibility Wind Speed Wind Dir Waves Ship Positions

Lifter

Last reported at 2016-Feb-09 22:29 UTC. Time now 2016-Feb-09 22:40 UTC.
Position N 51°17' E 004°21'.

Length 118 m; draft 4.9 m.

Type: Cargo ship. MMSI: 305175000.

Date/timePositionNaut miles runAvg speedWind from/ knotsBaromVisibWave heightAir tempDewpointWater temp
2016-Feb-09 22:29N 51°17' E 004°21'0 0.0
2016-Feb-09 21:32N 51°17' E 004°21'0 0.0
2016-Feb-09 20:32N 51°17' E 004°21'0 0.0
2016-Feb-09 19:32N 51°17' E 004°21'0 0.0
2016-Feb-09 18:32N 51°17' E 004°21'0 0.0
2016-Feb-09 17:32N 51°17' E 004°21'0 0.0
2016-Feb-09 16:32N 51°17' E 004°21'0 0.0
2016-Feb-09 15:32N 51°17' E 004°21'0 0.0
2016-Feb-09 14:32N 51°17' E 004°21'0 0.0
2016-Feb-09 13:29N 51°17' E 004°21'0 0.0
2016-Feb-09 12:32N 51°17' E 004°21'0 0.0
2016-Feb-09 11:29N 51°17' E 004°21'0 0.0
2016-Feb-09 10:32N 51°17' E 004°21'0 0.0
2016-Feb-09 09:32N 51°17' E 004°21'0 0.0
2016-Feb-09 08:32N 51°17' E 004°21'0 0.0
2016-Feb-09 07:32N 51°17' E 004°21'0 0.0
2016-Feb-09 06:32N 51°17' E 004°21'0 0.0
2016-Feb-09 05:32N 51°17' E 004°21'0 0.0
2016-Feb-09 04:32N 51°17' E 004°21'0 0.0
2016-Feb-09 03:32N 51°17' E 004°21'0 0.0
2016-Feb-09 02:32N 51°17' E 004°21'0 0.0
2016-Feb-09 01:29N 51°17' E 004°21'0 0.0
2016-Feb-09 00:32N 51°17' E 004°21'0 0.0
2016-Feb-08 23:29N 51°17' E 004°21'0 0.0
2016-Feb-08 22:32N 51°17' E 004°21'0 0.0
2016-Feb-08 21:32N 51°17' E 004°21'0 0.0
2016-Feb-08 20:32N 51°17' E 004°21'0 0.0
2016-Feb-08 19:32N 51°17' E 004°21'0 0.0
2016-Feb-08 18:32N 51°17' E 004°21'0 0.0
2016-Feb-08 17:32N 51°17' E 004°21'0 0.0
2016-Feb-08 16:32N 51°17' E 004°21'0 0.0
2016-Feb-08 15:32N 51°17' E 004°21'0 0.0
2016-Feb-08 14:32N 51°17' E 004°21'0 0.0
2016-Feb-08 13:32N 51°17' E 004°21'0 0.0
2016-Feb-08 12:32N 51°17' E 004°21'0 0.0
2016-Feb-08 11:32N 51°17' E 004°21'0 0.0
2016-Feb-08 10:32N 51°17' E 004°21'0 0.0
2016-Feb-08 09:32N 51°17' E 004°21'0 0.0
2016-Feb-08 08:29N 51°17' E 004°21'0 0.0
2016-Feb-08 07:32N 51°17' E 004°21'0 0.0
2016-Feb-08 06:32N 51°17' E 004°21'0 0.0
2016-Feb-08 05:32N 51°17' E 004°21'0 0.0
2016-Feb-08 04:32N 51°17' E 004°21'0 0.0
2016-Feb-08 03:32N 51°17' E 004°21'0 0.0
2016-Feb-08 02:32N 51°17' E 004°21'0 0.0
2016-Feb-08 01:32N 51°17' E 004°21'0 0.0
2016-Feb-08 00:32N 51°17' E 004°21'0 0.0
2016-Feb-07 23:32N 51°17' E 004°21'0 0.0
2016-Feb-07 22:32N 51°17' E 004°21'0 0.0
2016-Feb-07 21:32N 51°17' E 004°21'0 0.0
2016-Feb-07 20:32N 51°17' E 004°21'0 0.0
2016-Feb-07 19:32N 51°17' E 004°21'0 0.0
2016-Feb-07 18:32N 51°17' E 004°21'0 0.0
2016-Feb-07 17:32N 51°17' E 004°21'0 0.0
2016-Feb-07 16:32N 51°17' E 004°21'0 0.0
2016-Feb-07 15:29N 51°17' E 004°21'1 0.6
2016-Feb-07 14:33N 51°17' E 004°20'4 4.0
2016-Feb-07 13:33N 51°21' E 004°17'2 2.3
2016-Feb-07 12:33N 51°22' E 004°14'9 9.3
2016-Feb-07 11:33N 51°26' E 004°01'1010.4
2016-Feb-07 10:33N 51°22' E 003°45'1010.3
2016-Feb-07 09:33N 51°27' E 003°31'10 9.7
2016-Feb-07 08:33N 51°35' E 003°23'9 8.6
2016-Feb-07 07:33N 51°42' E 003°15'7 7.1
2016-Feb-07 06:33N 51°50' E 003°15'99 7.4
2016-Feb-06 17:07N 53°17' E 004°30'41 9.0
2016-Feb-06 12:33N 53°57' E 004°52'1010.3
2016-Feb-06 11:33N 54°06' E 004°59'1010.0
2016-Feb-06 10:33N 54°12' E 005°12'10 9.9
2016-Feb-06 09:33N 54°18' E 005°26'58 9.6
2016-Feb-06 03:33N 54°49' E 006°51'1111.3
2016-Feb-06 02:33N 54°55' E 007°06'1211.6
2016-Feb-06 01:33N 55°02' E 007°22'1211.9
2016-Feb-06 00:33N 55°10' E 007°38'1212.1
2016-Feb-05 23:33N 55°18' E 007°54'1312.6
2016-Feb-05 22:33N 55°25' E 008°12'8 8.3
2016-Feb-05 21:33N 55°28' E 008°26'0 0.1
2016-Feb-05 20:32N 55°28' E 008°26'0 0.0
2016-Feb-05 19:29N 55°28' E 008°26'0 0.0
2016-Feb-05 18:29N 55°28' E 008°26'0 0.0
2016-Feb-05 17:20N 55°28' E 008°26'0 0.0
2016-Feb-05 16:14N 55°28' E 008°26'0 0.0
2016-Feb-05 15:32N 55°28' E 008°26'0 0.0
2016-Feb-05 14:32N 55°28' E 008°26'0 0.0
2016-Feb-05 13:32N 55°28' E 008°26'0 0.0
2016-Feb-05 12:32N 55°28' E 008°26'0 0.0
2016-Feb-05 11:29N 55°28' E 008°26'0 0.0
2016-Feb-05 10:33N 55°28' E 008°26'8 7.6
2016-Feb-05 09:33N 55°25' E 008°13'1110.6
2016-Feb-05 08:33N 55°19' E 007°58'1110.6
2016-Feb-05 07:33N 55°13' E 007°43'1110.5
2016-Feb-05 06:33N 55°06' E 007°29'1110.6
2016-Feb-05 05:33N 55°00' E 007°14'1110.6
2016-Feb-05 04:33N 54°54' E 006°58'4912.1
2016-Feb-05 00:31N 54°26' E 005°49'1212.5
2016-Feb-04 23:33N 54°19' E 005°32'1312.9
2016-Feb-04 22:34N 54°12' E 005°14'1312.6
2016-Feb-04 21:33N 54°01' E 005°05'1312.8
2016-Feb-04 20:33N 53°49' E 004°57'1312.6
2016-Feb-04 19:30N 53°36' E 004°50'2412.4
2016-Feb-04 17:33N 53°14' E 004°34'1212.5
2016-Feb-04 16:34N 53°03' E 004°25'1212.3
2016-Feb-04 15:33N 52°52' E 004°15'1212.4
2016-Feb-04 14:33N 52°42' E 004°04'1212.5
2016-Feb-04 13:33N 52°32' E 003°51'6812.7
2016-Feb-04 08:12N 51°43' E 002°34'812.6
2016-Feb-04 07:33N 51°37' E 002°25'1312.7
2016-Feb-04 06:31N 51°27' E 002°13'1212.6
2016-Feb-04 05:34N 51°16' E 002°05'1212.3
2016-Feb-04 04:33N 51°09' E 001°49'1212.0
2016-Feb-04 03:33N 50°60' E 001°36'1111.3
2016-Feb-04 02:33N 50°50' E 001°27'  
2016-Jan-31 13:09N 41°59' W 009°47'712.3
2016-Jan-31 12:33N 41°52' W 009°48'1212.4
2016-Jan-31 11:32N 41°40' W 009°48'1211.5
2016-Jan-31 10:32N 41°28' W 009°48'1313.7
2016-Jan-31 09:33N 41°15' W 009°48'1211.9
2016-Jan-31 08:30N 41°02' W 009°48'1111.9
2016-Jan-31 07:33N 40°51' W 009°48'1212.5
2016-Jan-31 06:33N 40°38' W 009°48'1312.6
2016-Jan-31 05:33N 40°26' W 009°49'1211.8
2016-Jan-31 04:31N 40°13' W 009°49'1313.7
2016-Jan-31 03:33N 40°00' W 009°49'1312.6
2016-Jan-31 02:33N 39°48' W 009°50'1312.9
2016-Jan-31 01:33N 39°35' W 009°50'1111.5
2016-Jan-31 00:33N 39°23' W 009°51'1312.6
2016-Jan-30 23:33N 39°11' W 009°51'1212.5
2016-Jan-30 22:34N 38°58' W 009°50'  

Dump ship's entire track history